Time;durP1;ratioP1;P1;durP2;ratioP2;P2;SDS_P1;SDS_P2;PMS_P1;PMS_P2;Temp;Humidity;BMP_temperature;BMP_pressure;BME280_temperature;BME280_humidity;BME280_pressure;Samples;Min_cycle;Max_cycle;Signal;HPM_P1;HPM_P2
2022/09/04 00:01:41;;;;;;;9.23;5.97;;;;;;;17.16;63.14;95858.66;5027799;28;20025;-83
2022/09/04 00:04:19;;;;;;;8.43;5.47;;;;;;;17.13;62.92;95864.50;5029355;28;20029;-84
2022/09/04 00:06:54;;;;;;;8.18;5.82;;;;;;;17.14;63.30;95867.00;5045222;28;20033;-83
2022/09/04 00:09:48;;;;;;;9.43;5.80;;;;;;;17.11;63.58;95861.97;5026824;28;20049;-84
2022/09/04 00:12:14;;;;;;;7.28;5.22;;;;;;;17.10;63.14;95867.63;5044090;28;20025;-83
2022/09/04 00:14:44;;;;;;;12.38;5.90;;;;;;;17.07;63.56;95868.84;5026491;28;20037;-83
2022/09/04 00:17:24;;;;;;;8.93;5.45;;;;;;;17.08;63.36;95861.53;5043273;28;20021;-83
2022/09/04 00:20:23;;;;;;;7.90;5.70;;;;;;;17.08;63.56;95867.81;5043574;28;20037;-84
2022/09/04 00:22:51;;;;;;;8.73;5.28;;;;;;;17.08;63.23;95869.66;5034944;28;20040;-84
2022/09/04 00:25:16;;;;;;;9.90;5.60;;;;;;;17.09;63.20;95871.38;5044117;28;20538;-84
2022/09/04 00:27:47;;;;;;;8.75;5.47;;;;;;;17.05;62.92;95868.22;5044358;28;20132;-83
2022/09/04 00:30:14;;;;;;;9.02;5.30;;;;;;;17.06;63.25;95869.88;5010168;28;20059;-83
2022/09/04 00:32:53;;;;;;;8.40;5.80;;;;;;;17.03;63.57;95870.28;5044172;28;20036;-82
2022/09/04 00:35:30;;;;;;;9.23;5.72;;;;;;;16.99;63.45;95885.28;5043320;28;20031;-84
2022/09/04 00:38:02;;;;;;;9.60;6.38;;;;;;;16.93;63.32;95876.09;5027320;28;20502;-83
2022/09/04 00:40:33;;;;;;;7.68;5.35;;;;;;;16.88;63.90;95873.19;5026687;28;20029;-83
2022/09/04 00:43:08;;;;;;;9.68;6.00;;;;;;;16.86;64.09;95865.25;5027906;28;20101;-83
2022/09/04 00:46:08;;;;;;;8.40;5.43;;;;;;;16.89;64.06;95864.88;5044509;28;20060;-83
2022/09/04 00:48:35;;;;;;;7.30;5.50;;;;;;;16.88;63.66;95870.50;5043631;28;20090;-83
2022/09/04 00:51:31;;;;;;;10.75;5.88;;;;;;;16.79;64.07;95856.28;5044602;28;20116;-83
2022/09/04 00:54:15;;;;;;;7.43;5.40;;;;;;;16.78;64.07;95858.16;5042993;28;20039;-83
2022/09/04 00:57:12;;;;;;;10.70;5.50;;;;;;;16.79;64.18;95859.84;5044130;28;20115;-82
2022/09/04 00:59:56;;;;;;;8.27;5.75;;;;;;;16.81;63.76;95857.75;5044728;28;20032;-84
2022/09/04 01:02:46;;;;;;;11.20;5.65;;;;;;;16.84;63.83;95855.69;5044457;28;20522;-83
2022/09/04 01:05:44;;;;;;;7.70;5.45;;;;;;;16.80;63.89;95852.53;5044297;28;20025;-83
2022/09/04 01:08:33;;;;;;;7.88;5.53;;;;;;;16.78;63.84;95860.88;5029298;28;20029;-83
2022/09/04 01:11:06;;;;;;;7.32;5.45;;;;;;;16.79;63.50;95870.69;5042628;28;20033;-84
2022/09/04 01:13:56;;;;;;;9.15;5.43;;;;;;;16.76;63.45;95864.84;5042742;28;20025;-83
2022/09/04 01:16:34;;;;;;;9.60;6.60;;;;;;;16.76;63.74;95868.38;5042783;28;20067;-83
2022/09/04 01:19:15;;;;;;;11.00;5.70;;;;;;;16.74;63.44;95872.31;5042318;28;20025;-83
2022/09/04 01:22:04;;;;;;;8.68;5.60;;;;;;;16.71;63.45;95868.16;5043977;28;20037;-83
2022/09/04 01:24:36;;;;;;;7.40;5.40;;;;;;;16.73;63.37;95873.38;5042670;28;20515;-83
2022/09/04 01:27:35;;;;;;;8.18;5.57;;;;;;;16.68;63.62;95877.50;5043932;28;20029;-83
2022/09/04 01:30:08;;;;;;;14.65;5.65;;;;;;;16.67;63.35;95873.16;5044054;28;20032;-83
2022/09/04 01:33:08;;;;;;;11.20;6.38;;;;;;;16.70;63.56;95865.66;5026127;28;20503;-83
2022/09/04 01:35:33;;;;;;;11.45;6.20;;;;;;;16.65;63.70;95856.25;5047665;28;20025;-83
2022/09/04 01:38:20;;;;;;;9.88;5.53;;;;;;;16.67;63.96;95856.91;5047109;28;20033;-82
2022/09/04 01:40:51;;;;;;;10.55;6.05;;;;;;;16.65;64.20;95858.97;5045671;28;20038;-83
2022/09/04 01:43:20;;;;;;;9.98;5.43;;;;;;;16.62;64.42;95853.97;5046136;28;20032;-83
2022/09/04 01:46:23;;;;;;;7.97;5.50;;;;;;;16.61;64.42;95852.31;5029178;28;20025;-83
2022/09/04 01:49:09;;;;;;;9.25;6.03;;;;;;;16.60;64.85;95852.50;5046757;28;20407;-84
2022/09/04 01:51:50;;;;;;;8.90;6.03;;;;;;;16.54;64.37;95859.59;5046338;28;20095;-83
2022/09/04 01:54:21;;;;;;;8.48;5.63;;;;;;;16.54;64.24;95859.59;5047144;28;20025;-84
2022/09/04 01:57:14;;;;;;;12.10;5.93;;;;;;;16.52;63.98;95856.25;5046983;28;20044;-84
2022/09/04 02:00:04;;;;;;;8.00;6.10;;;;;;;16.51;63.51;95857.28;5046068;28;20028;-83
2022/09/04 02:02:56;;;;;;;8.50;5.30;;;;;;;16.50;63.62;95850.19;5046777;28;20134;-83
2022/09/04 02:05:29;;;;;;;7.93;5.63;;;;;;;16.44;63.69;95855.38;5046183;28;20025;-83
2022/09/04 02:08:19;;;;;;;8.93;5.47;;;;;;;16.48;63.09;95857.69;5046603;28;20025;-83
2022/09/04 02:11:16;;;;;;;10.55;5.88;;;;;;;16.43;63.77;95848.31;5045117;28;20032;-84
2022/09/04 02:14:07;;;;;;;8.38;5.35;;;;;;;16.40;63.67;95853.28;5046979;28;20462;-84
2022/09/04 02:16:52;;;;;;;7.43;5.28;;;;;;;16.32;64.31;95848.91;5045407;28;20448;-83
2022/09/04 02:19:47;;;;;;;8.50;5.68;;;;;;;16.34;64.54;95846.84;5044868;28;20032;-83
2022/09/04 02:22:22;;;;;;;8.82;5.80;;;;;;;16.31;64.71;95852.66;5046817;28;20143;-85
2022/09/04 02:25:03;;;;;;;8.45;5.60;;;;;;;16.31;64.99;95844.53;5028886;28;20082;-83
2022/09/04 02:27:39;;;;;;;9.60;5.70;;;;;;;16.29;65.79;95836.63;5045044;28;20060;-83
2022/09/04 02:30:09;;;;;;;7.85;5.30;;;;;;;16.29;66.26;95830.34;5028988;28;20499;-83
2022/09/04 02:32:46;;;;;;;9.38;5.90;;;;;;;16.31;66.31;95836.41;5012567;28;20032;-83
2022/09/04 02:35:21;;;;;;;9.70;4.93;;;;;;;16.26;66.44;95833.47;5046805;28;20040;-83
2022/09/04 02:37:55;;;;;;;6.90;5.30;;;;;;;16.22;67.05;95832.22;5046349;28;20033;-83
2022/09/04 02:40:35;;;;;;;8.27;5.63;;;;;;;16.29;66.84;95835.78;5045923;28;20039;-84
2022/09/04 02:43:13;;;;;;;7.00;5.45;;;;;;;16.32;66.51;95843.47;5029032;28;20033;-83
2022/09/04 02:45:54;;;;;;;8.80;5.40;;;;;;;16.25;66.45;95842.63;5045035;28;20033;-84
2022/09/04 02:48:41;;;;;;;6.93;5.38;;;;;;;16.24;66.38;95849.91;5029370;28;20032;-84
2022/09/04 02:51:12;;;;;;;8.50;5.13;;;;;;;16.21;66.37;95847.63;5046313;28;20120;-83
2022/09/04 02:53:58;;;;;;;7.55;5.22;;;;;;;16.23;66.60;95850.13;5046044;28;20029;-83
2022/09/04 02:56:34;;;;;;;8.15;5.22;;;;;;;16.23;66.56;95850.13;5029397;28;20025;-84
2022/09/04 02:59:18;;;;;;;7.82;5.65;;;;;;;16.22;66.54;95851.97;5012711;28;20033;-82
2022/09/04 03:01:59;;;;;;;6.55;5.32;;;;;;;16.28;66.35;95858.47;5044997;28;20025;-83
2022/09/04 03:04:51;;;;;;;8.93;6.10;;;;;;;16.24;66.53;95862.59;5045675;28;20029;-82
2022/09/04 03:07:39;;;;;;;9.13;5.43;;;;;;;16.29;66.29;95866.38;5044215;28;20040;-84
2022/09/04 03:10:10;;;;;;;8.95;5.18;;;;;;;16.32;66.08;95857.00;5011594;28;20048;-84
2022/09/04 03:13:06;;;;;;;8.00;5.18;;;;;;;16.37;66.13;95864.53;5045539;28;20037;-84
2022/09/04 03:15:44;;;;;;;8.32;5.15;;;;;;;16.39;65.94;95863.31;5029239;28;20021;-84
2022/09/04 03:18:23;;;;;;;9.63;5.20;;;;;;;16.40;65.15;95864.13;5044838;28;20148;-83
2022/09/04 03:20:51;;;;;;;8.23;5.25;;;;;;;16.42;65.09;95854.78;5027660;28;20029;-83
2022/09/04 03:23:21;;;;;;;8.57;5.72;;;;;;;16.41;64.98;95858.50;5045670;28;20470;-83
2022/09/04 03:26:26;;;;;;;9.10;5.57;;;;;;;16.39;65.36;95847.06;5044028;28;20028;-82
2022/09/04 03:29:21;;;;;;;8.07;5.45;;;;;;;16.33;65.50;95864.09;5043522;28;20036;-83
2022/09/04 03:31:58;;;;;;;7.22;5.28;;;;;;;16.36;65.64;95868.28;5045667;28;20670;-83
2022/09/04 03:34:51;;;;;;;14.35;6.95;;;;;;;16.31;65.86;95871.59;5045315;28;20036;-83
2022/09/04 03:37:29;;;;;;;8.13;6.20;;;;;;;16.26;66.29;95874.06;5045716;28;20045;-83
2022/09/04 03:39:55;;;;;;;10.02;5.97;;;;;;;16.30;65.96;95872.63;5030762;28;20091;-85
2022/09/04 03:42:58;;;;;;;10.07;5.75;;;;;;;16.34;65.90;95871.19;5044008;28;20025;-83
2022/09/04 03:45:26;;;;;;;8.73;5.53;;;;;;;16.34;65.62;95873.06;5045619;28;20025;-83
2022/09/04 03:48:13;;;;;;;9.73;5.70;;;;;;;16.34;65.49;95889.28;5045635;28;20052;-83
2022/09/04 03:50:50;;;;;;;8.30;5.65;;;;;;;16.31;66.19;95887.84;5044990;28;20025;-83
2022/09/04 03:53:26;;;;;;;12.57;6.45;;;;;;;16.28;66.25;95883.63;5044546;28;20041;-83
2022/09/04 03:56:13;;;;;;;10.13;6.38;;;;;;;16.29;65.90;95895.31;5043317;28;20076;-82
2022/09/04 03:58:48;;;;;;;11.13;6.25;;;;;;;16.24;65.83;95895.06;5044941;28;20075;-83
2022/09/04 04:01:44;;;;;;;12.80;6.97;;;;;;;16.18;66.26;95897.56;5044026;28;20033;-84
2022/09/04 04:04:33;;;;;;;21.67;9.10;;;;;;;16.16;66.72;95910.47;5044966;28;20041;-83
2022/09/04 04:07:26;;;;;;;12.82;7.00;;;;;;;16.18;67.05;95911.09;5044817;28;20578;-83
2022/09/04 04:09:57;;;;;;;;;;;;;;;16.19;67.28;95928.16;5045364;28;20055;-82
2022/09/04 04:12:48;;;;;;;13.18;8.30;;;;;;;16.16;67.74;95936.69;5045350;28;19935;-83
2022/09/04 04:15:20;;;;;;;10.45;7.35;;;;;;;16.17;67.73;95936.47;5044877;28;20055;-83
2022/09/04 04:18:15;;;;;;;;;;;;;;;16.14;67.92;95933.31;5044034;28;20558;-81
2022/09/04 04:20:53;;;;;;;14.43;8.45;;;;;;;16.15;67.67;95935.00;5025139;28;20502;-82
2022/09/04 04:23:40;;;;;;;12.70;7.30;;;;;;;16.17;67.76;95939.19;5045020;28;20523;-82
2022/09/04 04:26:39;;;;;;;11.30;7.68;;;;;;;16.22;67.34;95940.47;5044803;28;20199;-82
2022/09/04 04:29:07;;;;;;;12.52;7.63;;;;;;;16.23;67.59;95942.97;5041321;28;20426;-82
2022/09/04 04:31:35;;;;;;;12.23;7.72;;;;;;;16.23;67.45;95948.38;5044552;28;20033;-83
2022/09/04 04:34:18;;;;;;;10.38;6.82;;;;;;;16.23;67.46;95948.38;5044702;28;20025;-83
2022/09/04 04:37:04;;;;;;;13.18;7.97;;;;;;;16.24;68.04;95960.03;5027475;28;20075;-83
2022/09/04 04:39:50;;;;;;;12.02;7.25;;;;;;;16.23;67.81;95953.81;5043456;28;20102;-83
2022/09/04 04:42:34;;;;;;;12.70;7.63;;;;;;;16.14;68.56;95942.28;5044646;28;20447;-83
2022/09/04 04:48:08;;;;;;;18.27;7.47;;;;;;;16.16;68.46;95944.78;5044480;28;20089;-83
2022/09/04 04:50:52;;;;;;;10.90;6.82;;;;;;;16.04;68.22;95952.66;5044866;28;20063;-81
2022/09/04 04:53:44;;;;;;;9.60;5.60;;;;;;;15.96;68.92;95956.28;5044689;28;20025;-83
2022/09/04 04:56:30;;;;;;;10.77;5.82;;;;;;;15.99;68.65;95957.81;5044565;28;20057;-83
2022/09/04 04:59:19;;;;;;;8.95;6.50;;;;;;;16.12;68.24;95959.78;5044610;28;20040;-84
2022/09/04 05:01:52;;;;;;;12.05;5.82;;;;;;;16.16;67.75;95956.47;5044689;28;20048;-82
2022/09/04 05:04:28;;;;;;;12.68;7.00;;;;;;;16.18;68.04;95962.53;5027657;28;20029;-82
2022/09/04 05:07:16;;;;;;;8.48;6.50;;;;;;;16.40;67.53;95965.13;5027951;28;20484;-82
2022/09/04 05:09:50;;;;;;;8.82;6.05;;;;;;;16.41;67.39;95945.13;5047768;28;20056;-82
2022/09/04 05:12:47;;;;;;;10.52;6.57;;;;;;;16.44;67.26;95939.31;5031038;28;20032;-82
2022/09/04 05:15:17;;;;;;;10.82;7.10;;;;;;;16.48;67.14;95938.91;5047285;28;20427;-82
2022/09/04 05:17:52;;;;;;;9.40;7.18;;;;;;;16.49;67.24;95943.28;5030778;28;20111;-83
2022/09/04 05:20:38;;;;;;;10.68;7.10;;;;;;;16.58;67.12;95942.06;5053995;28;20036;-83
2022/09/04 05:23:22;;;;;;;10.52;7.18;;;;;;;16.73;67.08;95954.63;5035068;28;20491;-83
2022/09/04 05:26:09;;;;;;;9.75;6.72;;;;;;;16.82;66.90;95969.66;5047417;28;20068;-82
2022/09/04 05:28:43;;;;;;;10.77;7.15;;;;;;;16.96;66.21;95970.50;5047179;28;20071;-82
2022/09/04 05:31:25;;;;;;;11.95;6.80;;;;;;;16.97;65.97;95969.50;5047406;28;20533;-83
2022/09/04 05:34:17;;;;;;;11.60;7.55;;;;;;;17.06;66.01;95970.13;5029871;28;20193;-82
2022/09/04 05:37:05;;;;;;;9.88;7.35;;;;;;;17.26;65.39;95970.22;5047560;28;20128;-82
2022/09/04 05:39:35;;;;;;;10.40;7.00;;;;;;;17.21;65.63;95974.56;5046291;28;20028;-83
2022/09/04 05:42:14;;;;;;;9.40;6.38;;;;;;;17.25;65.18;95976.66;5031273;28;20056;-82
2022/09/04 05:44:55;;;;;;;9.13;6.28;;;;;;;17.34;64.99;95977.31;5047029;28;20025;-82
2022/09/04 05:47:35;;;;;;;9.48;6.75;;;;;;;17.45;65.02;95964.16;5046720;28;20035;-82
2022/09/04 05:50:16;;;;;;;9.55;5.97;;;;;;;17.61;63.53;95955.63;5049984;28;20048;-82
2022/09/04 05:52:50;;;;;;;11.85;5.72;;;;;;;17.66;63.26;95963.97;5054940;28;20075;-82
2022/09/04 05:55:31;;;;;;;11.10;6.10;;;;;;;17.72;63.19;95964.16;5053591;28;20029;-82
2022/09/04 05:58:27;;;;;;;8.40;6.53;;;;;;;17.86;62.59;95948.72;5055243;28;20409;-81
2022/09/04 06:01:21;;;;;;;9.40;5.97;;;;;;;17.95;61.83;95942.03;5055200;28;20074;-84
2022/09/04 06:03:57;;;;;;;9.75;5.72;;;;;;;17.99;62.19;95942.44;5057735;28;20056;-83
2022/09/04 06:06:36;;;;;;;9.25;5.78;;;;;;;17.98;62.05;95943.47;5055838;28;20025;-82
2022/09/04 06:09:27;;;;;;;9.57;5.93;;;;;;;18.02;61.72;95942.03;5054781;28;20574;-82
2022/09/04 06:12:02;;;;;;;7.38;5.30;;;;;;;18.10;62.20;95935.53;5048903;28;20102;-83
2022/09/04 06:15:09;;;;;;;13.13;5.38;;;;;;;18.28;61.55;95940.31;5046792;28;20032;-83
2022/09/04 06:17:53;;;;;;;7.35;5.65;;;;;;;18.19;61.14;95944.28;5044080;28;20104;-83
2022/09/04 06:20:26;;;;;;;8.85;5.72;;;;;;;18.14;61.38;95944.94;5029048;28;20466;-83
2022/09/04 06:23:16;;;;;;;7.93;5.60;;;;;;;18.17;61.36;95941.78;5037764;28;20064;-83
2022/09/04 06:26:00;;;;;;;7.55;5.70;;;;;;;18.26;61.57;95939.69;5046811;28;20104;-83
2022/09/04 06:28:25;;;;;;;7.50;5.45;;;;;;;18.41;60.89;95929.41;5046282;28;20032;-82
2022/09/04 06:30:54;;;;;;;6.90;5.57;;;;;;;18.49;60.91;95930.22;5044818;28;20116;-83
2022/09/04 06:33:58;;;;;;;9.60;6.05;;;;;;;18.69;61.18;95926.56;5046446;28;20029;-84
2022/09/04 06:36:34;;;;;;;9.13;5.95;;;;;;;18.74;60.01;95932.19;5045833;28;20039;-84
2022/09/04 06:39:19;;;;;;;9.23;5.35;;;;;;;18.89;59.87;95929.19;5045344;28;20491;-83
2022/09/04 06:41:52;;;;;;;15.35;6.28;;;;;;;18.81;59.96;95929.44;5045118;28;20036;-84
2022/09/04 06:44:20;;;;;;;8.65;5.80;;;;;;;18.86;60.36;95932.34;5044564;28;20036;-82
2022/09/04 06:47:04;;;;;;;10.70;5.97;;;;;;;19.05;60.41;95933.28;5046815;28;20033;-83
2022/09/04 06:49:46;;;;;;;9.40;6.45;;;;;;;18.90;60.19;95930.84;5045792;28;20586;-83
2022/09/04 06:52:23;;;;;;;9.15;6.80;;;;;;;18.81;60.99;95938.44;5044903;28;20029;-83
2022/09/04 06:54:59;;;;;;;9.38;7.18;;;;;;;18.90;61.42;95928.13;5046532;28;20024;-83
2022/09/04 06:57:46;;;;;;;9.85;7.35;;;;;;;18.80;61.42;95942.19;5028414;28;20427;-83
2022/09/04 07:00:13;;;;;;;9.52;7.32;;;;;;;18.71;61.50;95935.34;5046295;28;20025;-83
2022/09/04 07:03:00;;;;;;;10.30;7.88;;;;;;;18.98;61.74;95933.31;5028034;28;20044;-83
2022/09/04 07:05:53;;;;;;;9.85;7.60;;;;;;;19.10;60.64;95936.19;5045794;28;20887;-82
2022/09/04 07:08:49;;;;;;;12.45;8.52;;;;;;;19.23;60.86;95935.25;5046133;28;20040;-84
2022/09/04 07:11:36;;;;;;;9.77;7.38;;;;;;;19.32;60.80;95938.56;5045943;28;20171;-84
2022/09/04 07:14:20;;;;;;;12.13;8.73;;;;;;;19.22;60.73;95935.47;5045824;28;20049;-83
2022/09/04 07:17:16;;;;;;;12.30;9.32;;;;;;;19.33;60.19;95931.25;5047459;28;20029;-84
2022/09/04 07:19:47;;;;;;;18.27;12.18;;;;;;;19.44;61.08;95946.81;5045689;28;20041;-82
2022/09/04 07:22:38;;;;;;;18.42;14.40;;;;;;;19.63;61.24;95955.91;5045421;28;20024;-84
2022/09/04 07:25:22;;;;;;;25.42;17.02;;;;;;;19.66;60.34;95951.06;5044637;28;20111;-82
2022/09/04 07:28:04;;;;;;;21.35;16.90;;;;;;;19.57;60.40;95945.91;5029743;28;20079;-83
2022/09/04 07:30:33;;;;;;;30.73;18.58;;;;;;;19.38;60.94;95937.69;5044346;28;20566;-83
2022/09/04 07:33:06;;;;;;;24.83;17.75;;;;;;;19.26;61.36;95937.53;5036463;28;20020;-84
2022/09/04 07:35:37;;;;;;;23.40;17.45;;;;;;;19.03;62.17;95954.41;5024654;28;20443;-85
2022/09/04 07:38:09;;;;;;;24.02;16.55;;;;;;;18.97;62.53;95961.56;5023933;28;20079;-84
2022/09/04 07:40:49;;;;;;;21.90;16.00;;;;;;;19.01;62.15;95967.38;5043624;28;20029;-84
2022/09/04 07:44:03;;;;;;;19.98;14.65;;;;;;;19.14;62.25;95974.66;5009166;28;20025;-84
2022/09/04 07:46:39;;;;;;;;;;;;;;;19.23;62.30;95967.91;5042221;28;20122;-83
2022/09/04 07:49:25;;;;;;;20.05;14.63;;;;;;;19.33;62.71;95964.69;5041527;28;19919;-84
2022/09/04 07:51:55;;;;;;;18.75;13.43;;;;;;;19.39;62.30;95966.53;5044861;28;20507;-83
2022/09/04 07:55:05;;;;;;;18.42;12.63;;;;;;;19.49;61.26;95966.03;5027409;28;20392;-82
2022/09/04 07:57:36;;;;;;;17.77;12.70;;;;;;;19.46;61.81;95980.09;5041012;28;20493;-82
2022/09/04 08:00:08;;;;;;;19.25;12.60;;;;;;;19.54;63.26;95980.88;5045070;28;20041;-83
2022/09/04 08:02:47;;;;;;;17.88;11.93;;;;;;;19.62;62.06;95975.16;5043195;28;20508;-82
2022/09/04 08:05:31;;;;;;;18.17;12.10;;;;;;;19.72;60.83;95974.66;5028342;28;20037;-83
2022/09/04 08:08:18;;;;;;;17.15;12.50;;;;;;;19.81;60.89;95983.38;5043166;28;20167;-82
2022/09/04 08:10:59;;;;;;;25.27;13.05;;;;;;;19.74;61.38;95986.16;5042799;28;20053;-82
2022/09/04 08:13:55;;;;;;;22.83;12.45;;;;;;;19.76;61.27;95984.06;5045288;28;20450;-83
2022/09/04 08:16:23;;;;;;;20.88;13.32;;;;;;;19.92;61.73;95984.56;5043693;28;20511;-82
2022/09/04 08:18:54;;;;;;;21.65;12.25;;;;;;;20.07;60.30;95985.06;5044566;28;20033;-83
2022/09/04 08:21:30;;;;;;;15.82;11.68;;;;;;;20.11;59.78;95978.13;5044551;28;20411;-82
2022/09/04 08:24:05;;;;;;;14.32;11.32;;;;;;;20.22;59.88;95982.00;5026601;28;20492;-83
2022/09/04 08:26:33;;;;;;;16.20;11.18;;;;;;;20.34;60.24;95978.53;5044882;28;20037;-83
2022/09/04 08:29:36;;;;;;;14.15;11.30;;;;;;;20.38;59.22;95971.56;5026484;28;20266;-83
2022/09/04 08:32:16;;;;;;;13.73;10.10;;;;;;;20.32;59.88;95972.47;5044071;28;20061;-83
2022/09/04 08:35:04;;;;;;;13.60;9.85;;;;;;;20.34;59.93;95965.75;5044916;28;20029;-83
2022/09/04 08:38:07;;;;;;;11.50;9.43;;;;;;;20.41;59.61;95964.84;5043220;28;20025;-83
2022/09/04 08:40:32;;;;;;;11.00;9.02;;;;;;;20.46;58.98;95954.06;5044397;28;20032;-83
2022/09/04 08:43:25;;;;;;;13.48;9.00;;;;;;;20.55;59.29;95955.47;5046615;28;20476;-83
2022/09/04 08:46:14;;;;;;;10.45;8.55;;;;;;;20.49;58.99;95959.09;5048164;28;20029;-83
2022/09/04 08:48:46;;;;;;;12.32;9.60;;;;;;;20.79;58.49;95958.31;5047422;28;20504;-82
2022/09/04 08:51:38;;;;;;;11.23;8.63;;;;;;;20.87;58.00;95949.81;5048453;28;20029;-82
2022/09/04 08:54:24;;;;;;;;;;;;;;;21.10;57.41;95940.06;5047188;28;20416;-83
2022/09/04 08:57:04;;;;;;;9.32;7.90;;;;;;;21.25;56.68;95930.63;5048283;28;19920;-83
2022/09/04 08:59:47;;;;;;;10.73;8.30;;;;;;;21.41;55.92;95937.31;5048630;28;20056;-83
2022/09/04 09:02:36;;;;;;;10.48;7.03;;;;;;;21.43;55.27;95927.00;5046549;28;20442;-82
2022/09/04 09:05:08;;;;;;;12.00;7.47;;;;;;;21.41;55.22;95934.59;5046689;28;20116;-82
2022/09/04 09:07:57;;;;;;;13.02;7.18;;;;;;;21.07;56.19;95934.28;5046852;28;20032;-83
2022/09/04 09:10:56;;;;;;;9.35;7.45;;;;;;;21.47;55.38;95924.66;5046618;28;20048;-81
2022/09/04 09:13:37;;;;;;;11.57;7.13;;;;;;;21.64;54.93;95932.97;5048124;28;20112;-81
2022/09/04 09:16:19;;;;;;;7.60;5.78;;;;;;;21.71;55.24;95943.78;5047667;28;20044;-82
2022/09/04 09:19:06;;;;;;;9.52;6.28;;;;;;;21.72;52.98;95937.25;5047999;28;20029;-82
2022/09/04 09:21:50;;;;;;;6.18;5.10;;;;;;;21.36;51.54;95938.03;5047886;28;20121;-83
2022/09/04 09:25:13;;;;;;;5.50;4.50;;;;;;;21.63;52.85;95938.66;5047666;28;20029;-83
2022/09/04 09:27:57;;;;;;;5.13;4.00;;;;;;;21.69;51.23;95940.44;5045656;28;20045;-83
2022/09/04 09:30:22;;;;;;;5.80;5.00;;;;;;;21.75;51.34;95936.78;5045278;28;20060;-82
2022/09/04 09:33:22;;;;;;;9.20;5.20;;;;;;;21.98;51.96;95926.97;5029261;28;20080;-82
2022/09/04 09:36:09;;;;;;;6.80;5.40;;;;;;;22.20;49.93;95920.88;5046574;28;20457;-82
2022/09/04 09:38:56;;;;;;;7.97;5.35;;;;;;;22.34;50.71;95922.28;5046273;28;20021;-83
2022/09/04 09:41:54;;;;;;;6.07;5.47;;;;;;;22.38;51.69;95917.19;5045707;28;20036;-83
2022/09/04 09:44:42;;;;;;;8.68;5.15;;;;;;;22.43;50.17;95917.28;5046247;28;20029;-83
2022/09/04 09:47:19;;;;;;;13.90;5.50;;;;;;;22.51;50.69;95913.34;5046954;28;20041;-82
2022/09/04 09:50:03;;;;;;;12.18;5.32;;;;;;;22.64;50.18;95912.28;5047569;28;20031;-82
2022/09/04 09:52:55;;;;;;;16.13;5.78;;;;;;;22.78;51.10;95901.88;5047366;28;20021;-83
2022/09/04 09:55:30;;;;;;;7.50;5.30;;;;;;;22.98;50.44;95906.09;5045372;28;20044;-82
2022/09/04 09:57:58;;;;;;;5.75;4.63;;;;;;;23.01;50.29;95886.44;5047749;28;20039;-81
2022/09/04 10:00:26;;;;;;;9.23;4.82;;;;;;;23.14;49.52;95879.00;5047181;28;20488;-82
2022/09/04 10:02:57;;;;;;;12.13;4.82;;;;;;;23.20;49.81;95875.28;5029830;28;20028;-81
2022/09/04 10:05:50;;;;;;;9.18;4.95;;;;;;;23.18;48.59;95882.91;5047122;28;20048;-82
2022/09/04 10:08:49;;;;;;;7.45;4.47;;;;;;;23.13;49.34;95886.41;5045744;28;20090;-82
2022/09/04 10:11:15;;;;;;;8.65;4.80;;;;;;;23.23;49.40;95896.66;5046987;28;20040;-82
2022/09/04 10:14:14;;;;;;;13.02;4.85;;;;;;;23.33;48.79;95890.53;5047197;28;20488;-82
2022/09/04 10:17:00;;;;;;;8.73;5.60;;;;;;;23.37;48.87;95894.47;5047293;28;20041;-82
2022/09/04 10:19:52;;;;;;;9.23;4.82;;;;;;;23.46;48.26;95876.56;5047134;28;20024;-82
2022/09/04 10:22:17;;;;;;;7.68;4.40;;;;;;;23.22;48.57;95867.66;5045582;28;20553;-82
2022/09/04 10:25:14;;;;;;;8.57;4.60;;;;;;;23.01;48.62;95864.56;5046773;28;20020;-82
2022/09/04 10:27:48;;;;;;;7.72;4.70;;;;;;;23.18;48.79;95872.78;5046774;28;20029;-81
2022/09/04 10:30:21;;;;;;;6.20;4.25;;;;;;;23.21;49.11;95876.94;5046362;28;20037;-83
2022/09/04 10:32:56;;;;;;;;;;;;;;;23.49;50.22;95877.16;5029727;28;20033;-83
2022/09/04 10:35:44;;;;;;;5.60;4.70;;;;;;;23.48;49.62;95870.84;5045071;28;19912;-83
2022/09/04 10:38:28;;;;;;;7.35;5.10;;;;;;;23.37;48.55;95869.00;5031741;28;20037;-82
2022/09/04 10:41:14;;;;;;;5.55;4.57;;;;;;;23.75;49.52;95870.16;5045342;28;20028;-83
2022/09/04 10:44:10;;;;;;;10.48;5.32;;;;;;;23.87;49.85;95861.03;5046045;28;20056;-82
2022/09/04 10:46:35;;;;;;;5.55;4.40;;;;;;;23.97;48.12;95855.69;5013574;28;20479;-83
2022/09/04 10:49:16;;;;;;;9.38;4.82;;;;;;;23.92;46.83;95848.22;5046348;28;20056;-83
2022/09/04 10:51:58;;;;;;;6.70;4.70;;;;;;;23.88;47.58;95852.56;5028203;28;20126;-82
2022/09/04 10:55:02;;;;;;;6.93;4.85;;;;;;;23.94;47.58;95850.72;5046787;28;20112;-83
2022/09/04 10:57:52;;;;;;;7.28;4.57;;;;;;;23.95;48.18;95846.91;5028160;28;20041;-82
2022/09/04 11:00:20;;;;;;;7.97;4.72;;;;;;;24.09;48.63;95841.88;5046628;28;20116;-82
2022/09/04 11:03:14;;;;;;;5.65;3.95;;;;;;;24.07;46.21;95842.13;5044838;28;20029;-83
2022/09/04 11:06:23;;;;;;;8.55;4.72;;;;;;;24.16;46.60;95838.97;5045770;28;20127;-83
2022/09/04 11:08:59;;;;;;;10.57;4.32;;;;;;;24.24;46.32;95832.22;5043068;28;20035;-82
2022/09/04 11:11:46;;;;;;;10.32;4.35;;;;;;;24.16;47.24;95830.75;5042693;28;20063;-82
2022/09/04 11:14:56;;;;;;;6.90;4.45;;;;;;;24.08;46.13;95829.28;5029891;28;20578;-81
2022/09/04 11:17:29;;;;;;;10.77;4.43;;;;;;;24.39;46.27;95824.19;5045598;28;20348;-82
2022/09/04 11:20:13;;;;;;;7.88;4.93;;;;;;;24.25;46.33;95829.22;5045689;28;20029;-82
2022/09/04 11:23:05;;;;;;;7.40;4.70;;;;;;;24.32;45.70;95818.09;5044786;28;20039;-82
2022/09/04 11:25:50;;;;;;;6.55;3.95;;;;;;;24.76;45.97;95811.69;5044434;28;20060;-84
2022/09/04 11:28:45;;;;;;;4.57;4.10;;;;;;;24.66;45.83;95811.59;5044234;28;20114;-82
2022/09/04 11:31:22;;;;;;;4.38;3.95;;;;;;;24.92;45.67;95817.38;5012081;28;20032;-83
2022/09/04 11:34:15;;;;;;;5.30;3.83;;;;;;;25.03;45.16;95816.38;5045261;28;20383;-81
2022/09/04 11:37:02;;;;;;;6.05;4.10;;;;;;;25.10;44.67;95805.16;5045399;28;20550;-83
2022/09/04 11:39:35;;;;;;;5.25;4.20;;;;;;;24.51;44.52;95804.03;5045163;28;20033;-84
2022/09/04 11:42:28;;;;;;;4.97;3.38;;;;;;;25.01;44.00;95804.84;5044122;28;20472;-81
2022/09/04 11:45:36;;;;;;;7.13;3.60;;;;;;;25.40;44.32;95797.47;5044758;28;20716;-83
2022/09/04 11:48:40;;;;;;;4.90;3.70;;;;;;;25.30;42.83;95796.28;5043436;28;20558;-82
2022/09/04 11:51:16;;;;;;;5.90;2.95;;;;;;;25.14;41.87;95795.34;5045178;28;20048;-82
2022/09/04 11:54:11;;;;;;;4.30;2.95;;;;;;;25.10;42.64;95793.38;5044989;28;20136;-82
2022/09/04 11:57:00;;;;;;;6.15;3.45;;;;;;;25.37;41.63;95792.50;5043889;28;20029;-82
2022/09/04 11:59:44;;;;;;;4.03;3.13;;;;;;;25.41;41.66;95793.59;5044064;28;20025;-84
2022/09/04 12:02:37;;;;;;;2.90;2.50;;;;;;;25.68;40.70;95781.75;5044551;28;20139;-83
2022/09/04 12:05:17;;;;;;;3.67;3.03;;;;;;;25.82;41.26;95778.53;5043084;28;20090;-84
2022/09/04 12:07:56;;;;;;;6.05;3.47;;;;;;;26.15;41.15;95768.22;5044829;28;20029;-82
2022/09/04 12:10:25;;;;;;;5.47;3.20;;;;;;;26.02;37.54;95756.63;5043075;28;20049;-83
2022/09/04 12:13:16;;;;;;;3.72;2.67;;;;;;;25.87;37.94;95762.06;5044785;28;20024;-83
2022/09/04 12:16:03;;;;;;;3.15;2.30;;;;;;;26.22;38.21;95766.06;5043592;28;20047;-83
2022/09/04 12:18:44;;;;;;;3.47;2.47;;;;;;;26.54;36.88;95754.06;5027564;28;20025;-84
2022/09/04 12:21:13;;;;;;;7.05;2.95;;;;;;;25.99;38.13;95764.56;5043259;28;20098;-83
2022/09/04 12:23:56;;;;;;;4.18;2.67;;;;;;;25.95;38.69;95756.06;5044235;28;20420;-83
2022/09/04 12:26:43;;;;;;;4.75;2.60;;;;;;;25.51;39.28;95760.75;5044718;28;20025;-83
2022/09/04 12:29:08;;;;;;;4.00;2.60;;;;;;;25.60;39.31;95758.31;5044599;28;20037;-82
2022/09/04 12:31:55;;;;;;;3.38;2.80;;;;;;;26.20;37.35;95760.00;5044341;28;20064;-82
2022/09/04 12:34:31;;;;;;;3.60;2.47;;;;;;;26.40;37.88;95756.53;5045100;28;20036;-83
2022/09/04 12:37:05;;;;;;;5.78;2.45;;;;;;;26.59;36.98;95752.44;5042836;28;20032;-82
2022/09/04 12:39:49;;;;;;;3.85;2.45;;;;;;;26.64;35.72;95755.19;5044651;28;20021;-82
2022/09/04 12:42:29;;;;;;;7.47;2.55;;;;;;;26.71;36.74;95755.75;5044273;28;20428;-82
2022/09/04 12:45:24;;;;;;;5.78;2.55;;;;;;;26.91;36.23;95762.38;5042766;28;20732;-85
2022/09/04 12:48:01;;;;;;;3.53;2.60;;;;;;;27.14;36.03;95755.53;5026709;28;20047;-82